Time;durP1;ratioP1;P1;durP2;ratioP2;P2;SDS_P1;SDS_P2;PMS_P1;PMS_P2;Temp;Humidity;BMP_temperature;BMP_pressure;BME280_temperature;BME280_humidity;BME280_pressure;Samples;Min_cycle;Max_cycle;Signal;HPM_P1;HPM_P2
2023/08/10 00:01:41;;;;;;;;;0.75;0.00;;;;;17.02;65.52;102098.91;5032380;28;8832;-68
2023/08/10 00:04:07;;;;;;;;;0.00;0.00;;;;;17.02;65.36;102096.16;5033152;28;8948;-68
2023/08/10 00:06:34;;;;;;;;;0.00;0.00;;;;;17.00;65.39;102090.91;5025617;28;8847;-68
2023/08/10 00:09:01;;;;;;;;;0.00;0.00;;;;;17.01;65.37;102094.47;5028905;28;8848;-68
2023/08/10 00:11:27;;;;;;;;;0.00;0.00;;;;;17.00;65.05;102087.38;5037604;28;8902;-69
2023/08/10 00:13:54;;;;;;;;;0.25;0.25;;;;;17.00;65.19;102095.53;5033018;28;8860;-67
2023/08/10 00:16:20;;;;;;;;;0.50;0.50;;;;;16.99;65.11;102093.84;5027327;28;9065;-67
2023/08/10 00:18:47;;;;;;;;;0.00;0.00;;;;;17.00;64.80;102103.69;5047081;28;8967;-69
2023/08/10 00:21:13;;;;;;;;;0.00;0.00;;;;;17.00;64.98;102098.25;5032576;28;8856;-69
2023/08/10 00:23:40;;;;;;;;;0.00;0.00;;;;;16.99;64.68;102102.03;5028255;28;8929;-69
2023/08/10 00:26:06;;;;;;;;;0.25;0.25;;;;;16.95;64.83;102087.97;5027795;28;8971;-67
2023/08/10 00:28:33;;;;;;;;;0.00;0.00;;;;;16.96;64.94;102097.81;5029895;28;8955;-69
2023/08/10 00:31:00;;;;;;;;;0.00;0.00;;;;;16.95;64.86;102095.31;5030987;28;8840;-69
2023/08/10 00:33:26;;;;;;;;;0.50;0.50;;;;;16.92;65.32;102088.38;5031975;28;9060;-69
2023/08/10 00:36:04;;;;;;;;;0.00;0.00;;;;;16.89;65.27;102091.50;5028619;28;9618;-69
2023/08/10 00:38:30;;;;;;;;;1.50;0.50;;;;;16.87;65.59;102090.06;5028012;28;8858;-69
2023/08/10 00:40:57;;;;;;;;;0.00;0.00;;;;;16.84;65.53;102090.47;5029847;28;8828;-69
2023/08/10 00:43:24;;;;;;;;;1.00;1.00;;;;;16.82;65.83;102106.16;5034140;28;9582;-69
2023/08/10 00:45:52;;;;;;;;;0.00;0.00;;;;;16.80;65.80;102096.31;5030875;28;9722;-69
2023/08/10 00:48:20;;;;;;;;;2.00;0.00;;;;;16.78;66.14;102094.84;5028219;28;8848;-69
2023/08/10 00:50:52;;;;;;;;;1.00;1.00;;;;;16.77;66.45;102102.19;5030851;28;8825;-69
2023/08/10 00:53:19;;;;;;;;;0.25;0.25;;;;;16.74;66.29;102091.69;5032442;28;8915;-69
2023/08/10 00:55:51;;;;;;;;;1.00;0.50;;;;;16.70;66.72;102095.84;5034296;28;8872;-69
2023/08/10 00:58:21;;;;;;;;;0.50;0.50;;;;;16.68;66.87;102097.06;5028240;28;8837;-69
2023/08/10 01:00:48;;;;;;;;;1.00;0.00;;;;;16.66;66.90;102093.75;5029653;28;8856;-69
2023/08/10 01:03:16;;;;;;;;;0.00;0.00;;;;;16.64;67.03;102093.91;5029649;28;8893;-69
2023/08/10 01:05:57;;;;;;;;;0.75;0.00;;;;;16.64;66.90;102091.22;5031429;28;8844;-69
2023/08/10 01:08:45;;;;;;;;;2.00;1.00;;;;;16.64;67.02;102090.38;5029487;28;8898;-69
2023/08/10 01:11:35;;;;;;;;;0.25;0.25;;;;;16.64;67.00;102084.94;5030830;28;9654;-69
2023/08/10 01:14:25;;;;;;;;;1.00;1.00;;;;;16.65;67.26;102089.31;5030284;28;8943;-67
2023/08/10 01:16:55;;;;;;;;;0.00;0.00;;;;;16.65;67.48;102089.31;5023451;28;8989;-69
2023/08/10 01:19:32;;;;;;;;;1.00;1.00;;;;;16.65;67.24;102095.63;5030340;28;8829;-68
2023/08/10 01:22:16;;;;;;;;;2.50;2.00;;;;;16.64;67.39;102095.81;5030429;28;8979;-69
2023/08/10 01:24:44;;;;;;;;;1.25;0.25;;;;;16.63;67.55;102094.97;5027237;28;8843;-69
2023/08/10 01:27:12;;;;;;;;;0.00;0.00;;;;;16.62;67.59;102093.31;5024167;28;8973;-67
2023/08/10 01:29:39;;;;;;;;;0.75;0.25;;;;;16.62;67.46;102097.91;5030427;28;8820;-69
2023/08/10 01:32:13;;;;;;;;;1.00;1.00;;;;;16.60;67.84;102097.25;5030431;28;8874;-69
2023/08/10 01:34:39;;;;;;;;;0.50;0.00;;;;;16.59;68.11;102107.28;5028050;28;8898;-69
2023/08/10 01:37:06;;;;;;;;;0.00;0.00;;;;;16.59;67.49;102103.75;5031264;28;8860;-69
2023/08/10 01:39:32;;;;;;;;;1.00;1.00;;;;;16.55;67.76;102101.44;5010566;28;8961;-69
2023/08/10 01:41:59;;;;;;;;;1.00;0.00;;;;;16.55;68.10;102108.75;5028021;28;8869;-69
2023/08/10 01:44:25;;;;;;;;;1.00;1.00;;;;;16.53;67.84;102108.13;5032374;28;8880;-69
2023/08/10 01:46:56;;;;;;;;;1.00;0.00;;;;;16.51;67.81;102107.47;5030114;28;9664;-68
2023/08/10 01:49:24;;;;;;;;;1.00;1.00;;;;;16.50;67.49;102106.63;5031580;28;8841;-68
2023/08/10 01:51:53;;;;;;;;;0.00;0.00;;;;;16.49;67.18;102107.69;5010926;28;8865;-69
2023/08/10 01:54:21;;;;;;;;;0.00;0.00;;;;;16.48;67.16;102105.16;5029028;28;8841;-69
2023/08/10 01:56:47;;;;;;;;;0.75;0.75;;;;;16.45;67.12;102109.13;5010409;28;8839;-69
2023/08/10 01:59:14;;;;;;;;;1.00;0.50;;;;;16.43;66.57;102105.75;5026792;28;8828;-69
2023/08/10 02:01:41;;;;;;;;;0.50;0.50;;;;;16.40;67.10;102102.59;5019978;28;9007;-69
2023/08/10 02:04:08;;;;;;;;;0.00;0.00;;;;;16.37;67.16;102103.03;5025820;28;8833;-69
2023/08/10 02:06:39;;;;;;;;;1.25;1.00;;;;;16.34;67.36;102109.69;5026217;28;8866;-68
2023/08/10 02:09:06;;;;;;;;;0.67;0.67;;;;;16.30;67.04;102100.28;5024227;28;8900;-68
2023/08/10 02:11:32;;;;;;;;;1.00;0.25;;;;;16.26;67.21;102094.41;5040289;28;8937;-67
2023/08/10 02:13:59;;;;;;;;;0.00;0.00;;;;;16.23;67.42;102100.22;5026850;28;8914;-69
2023/08/10 02:16:27;;;;;;;;;1.00;0.00;;;;;16.19;67.61;102109.81;5029406;28;8926;-69
2023/08/10 02:18:54;;;;;;;;;0.00;0.00;;;;;16.18;67.55;102107.31;5044373;28;9627;-69
2023/08/10 02:21:23;;;;;;;;;0.00;0.00;;;;;16.15;67.32;102097.69;5029199;28;9095;-69
2023/08/10 02:23:50;;;;;;;;;0.67;0.67;;;;;16.12;67.50;102091.81;5026886;28;9045;-69
2023/08/10 02:26:17;;;;;;;;;0.33;0.00;;;;;16.12;67.94;102097.22;5024875;28;8940;-67
2023/08/10 02:28:43;;;;;;;;;0.33;0.33;;;;;16.08;67.64;102096.78;5029772;28;9179;-67
2023/08/10 02:31:10;;;;;;;;;1.00;1.00;;;;;16.08;68.09;102096.78;5030219;28;9101;-68
2023/08/10 02:33:37;;;;;;;;;0.00;0.00;;;;;16.06;68.12;102094.28;5028930;28;8839;-68
2023/08/10 02:36:03;;;;;;;;;0.00;0.00;;;;;16.05;68.22;102097.22;5025853;28;8856;-67
2023/08/10 02:38:30;;;;;;;;;0.00;0.00;;;;;16.02;68.22;102093.00;5030335;28;9044;-68
2023/08/10 02:40:56;;;;;;;;;0.25;0.25;;;;;16.01;68.42;102095.94;5044881;28;9566;-67
2023/08/10 02:43:23;;;;;;;;;0.00;0.00;;;;;15.99;68.80;102098.00;5024951;28;8824;-67
2023/08/10 02:45:50;;;;;;;;;1.00;1.00;;;;;15.98;68.83;102101.75;5045179;28;9025;-67
2023/08/10 02:48:16;;;;;;;;;1.67;1.00;;;;;15.95;69.14;102096.72;5036021;28;9258;-67
2023/08/10 02:50:43;;;;;;;;;1.00;1.00;;;;;15.94;68.98;102100.47;5029060;28;9851;-67
2023/08/10 02:53:10;;;;;;;;;0.67;0.67;;;;;15.93;69.10;102099.66;5026745;28;9102;-68
2023/08/10 02:55:37;;;;;;;;;1.00;0.67;;;;;15.91;69.47;102100.88;5028619;28;9011;-67
2023/08/10 02:58:03;;;;;;;;;1.00;1.00;;;;;15.89;69.29;102103.81;5027467;28;9079;-68
2023/08/10 03:00:30;;;;;;;;;0.33;0.33;;;;;15.88;69.57;102106.69;5025518;28;11481;-67
2023/08/10 03:02:59;;;;;;;;;1.00;1.00;;;;;15.87;69.48;102107.75;5026066;28;9784;-68
2023/08/10 03:05:27;;;;;;;;;0.00;0.00;;;;;15.84;69.46;102111.72;5025480;28;9170;-67
2023/08/10 03:07:54;;;;;;;;;1.00;1.00;;;;;15.81;69.70;102110.22;5028318;28;9119;-68
2023/08/10 03:10:21;;;;;;;;;1.00;1.00;;;;;15.79;69.65;102106.00;5020353;28;9035;-67
2023/08/10 03:12:47;;;;;;;;;1.00;1.00;;;;;15.77;69.88;102108.09;5025579;28;9059;-68
2023/08/10 03:15:14;;;;;;;;;0.67;0.67;;;;;15.73;70.18;102094.06;5027965;28;9240;-68
2023/08/10 03:17:41;;;;;;;;;0.67;0.00;;;;;15.73;70.23;102104.09;5050049;23;9144;-67
2023/08/10 03:20:16;;;;;;;;;0.00;0.00;;;;;15.71;70.00;102090.72;5024750;28;9173;-70
2023/08/10 03:22:45;;;;;;;;;1.00;1.00;;;;;15.70;70.29;102099.06;5027679;28;9070;-67
2023/08/10 03:25:12;;;;;;;;;1.00;1.00;;;;;15.67;70.57;102099.44;5028771;28;9131;-67
2023/08/10 03:27:38;;;;;;;;;1.00;0.00;;;;;15.67;70.69;102102.16;5018757;28;8989;-68
2023/08/10 03:30:08;;;;;;;;;1.00;1.00;;;;;15.65;70.45;102105.09;5004336;28;9009;-68
2023/08/10 03:32:36;;;;;;;;;2.00;1.33;;;;;15.63;70.63;102106.28;5007778;28;9106;-67
2023/08/10 03:35:03;;;;;;;;;1.00;1.00;;;;;15.62;70.69;102107.31;5007354;28;9062;-69
2023/08/10 03:37:30;;;;;;;;;2.00;2.00;;;;;15.58;70.80;102102.28;5009754;28;9913;-70
2023/08/10 03:39:56;;;;;;;;;1.00;1.00;;;;;15.54;70.98;102102.88;5006017;28;9070;-70
2023/08/10 03:42:23;;;;;;;;;1.00;1.00;;;;;15.57;71.19;102108.75;5008987;28;9089;-70
2023/08/10 03:44:50;;;;;;;;;2.00;1.33;;;;;15.56;70.97;102107.06;5005598;28;9194;-70
2023/08/10 03:47:16;;;;;;;;;1.00;1.00;;;;;15.55;71.17;102108.09;5004343;28;9070;-70
2023/08/10 03:49:43;;;;;;;;;0.00;0.00;;;;;15.54;71.14;102100.16;5008923;28;9066;-69
2023/08/10 03:52:10;;;;;;;;;2.67;1.00;;;;;15.53;71.57;102096.59;5006531;28;9190;-67
2023/08/10 03:54:37;;;;;;;;;4.33;2.67;;;;;15.51;71.52;102101.38;5008213;28;8998;-69
2023/08/10 03:57:03;;;;;;;;;1.67;0.33;;;;;15.51;71.48;102111.38;5009039;28;9250;-68
2023/08/10 03:59:30;;;;;;;;;1.00;1.00;;;;;15.50;71.72;102104.28;5007076;28;9210;-68
2023/08/10 04:01:56;;;;;;;;;3.00;2.00;;;;;15.50;71.83;102113.28;5025530;28;9171;-69
2023/08/10 04:04:23;;;;;;;;;1.00;1.00;;;;;15.50;71.78;102109.72;5011887;28;9154;-69
2023/08/10 04:06:49;;;;;;;;;1.00;1.00;;;;;15.52;71.83;102110.38;5025174;28;9087;-68
2023/08/10 04:09:16;;;;;;;;;2.00;2.00;;;;;15.55;71.75;102115.41;5004818;28;9045;-68
2023/08/10 04:11:42;;;;;;;;;1.00;1.00;;;;;15.58;71.81;102102.28;5009612;28;9769;-68
2023/08/10 04:14:09;;;;;;;;;0.00;0.00;;;;;15.59;71.76;102106.66;5025124;28;9179;-69
2023/08/10 04:16:35;;;;;;;;;2.00;1.00;;;;;15.61;71.63;102109.19;5001167;28;9257;-68
2023/08/10 04:19:03;;;;;;;;;2.00;1.00;;;;;15.62;71.79;102116.28;5014655;28;9209;-69
2023/08/10 04:21:30;;;;;;;;;1.00;1.00;;;;;15.63;71.53;102115.25;5008761;28;9186;-69
2023/08/10 04:23:56;;;;;;;;;2.00;0.33;;;;;15.65;71.75;102117.81;5008156;28;9176;-68
2023/08/10 04:26:23;;;;;;;;;1.00;1.00;;;;;15.65;71.27;102123.25;5009055;28;9163;-68
2023/08/10 04:28:49;;;;;;;;;1.00;0.00;;;;;15.66;71.83;102116.78;5013506;28;9092;-68
2023/08/10 04:31:16;;;;;;;;;2.00;1.00;;;;;15.67;71.64;102119.28;5011880;28;8993;-68
2023/08/10 04:33:42;;;;;;;;;2.67;1.67;;;;;15.69;71.47;102117.22;5009816;28;9082;-68
2023/08/10 04:36:09;;;;;;;;;2.00;2.00;;;;;15.70;71.58;102120.78;5012314;28;9179;-69
2023/08/10 04:38:35;;;;;;;;;3.00;1.33;;;;;15.69;71.52;102119.94;5012760;28;9215;-69
2023/08/10 04:41:02;;;;;;;;;3.00;2.00;;;;;15.69;71.56;102113.69;5027717;28;9057;-69
2023/08/10 04:43:29;;;;;;;;;1.33;1.33;;;;;15.70;71.43;102115.34;5012594;28;9145;-68
2023/08/10 04:45:55;;;;;;;;;1.33;1.33;;;;;15.69;71.91;102111.78;5012560;28;9152;-69
2023/08/10 04:48:22;;;;;;;;;3.00;2.00;;;;;15.70;72.05;102118.91;5010072;28;9104;-69
2023/08/10 04:50:48;;;;;;;;;5.67;2.00;;;;;15.72;72.02;102108.69;5012650;28;9139;-69
2023/08/10 04:53:15;;;;;;;;;3.00;3.00;;;;;15.72;72.03;102108.69;5013132;28;9070;-68
2023/08/10 04:55:41;;;;;;;;;2.33;2.33;;;;;15.73;72.05;102104.94;5012564;28;8936;-69
2023/08/10 04:58:08;;;;;;;;;3.00;3.00;;;;;15.74;71.78;102120.19;5012603;28;9031;-69
2023/08/10 05:00:34;;;;;;;;;2.00;2.00;;;;;15.74;72.05;102103.06;5010654;28;9268;-69
2023/08/10 05:03:01;;;;;;;;;3.00;3.00;;;;;15.75;71.74;102102.00;5012220;28;9184;-69
2023/08/10 05:05:27;;;;;;;;;1.00;1.00;;;;;15.74;72.03;102106.59;5010581;28;9223;-69
2023/08/10 05:07:54;;;;;;;;;2.00;2.00;;;;;15.75;72.21;102100.13;5012822;28;9003;-69
2023/08/10 05:10:21;;;;;;;;;1.00;1.00;;;;;15.78;72.49;102101.63;5011149;28;9093;-68
2023/08/10 05:12:48;;;;;;;;;2.00;1.00;;;;;15.77;72.48;102099.94;5027084;28;10365;-69
2023/08/10 05:15:14;;;;;;;;;1.00;1.00;;;;;15.79;72.77;102103.28;5011804;28;9152;-68
2023/08/10 05:17:41;;;;;;;;;0.00;0.00;;;;;15.79;72.48;102101.41;5012033;28;9098;-68
2023/08/10 05:20:12;;;;;;;;;1.00;1.00;;;;;15.81;72.59;102095.81;5011434;28;9058;-70
2023/08/10 05:22:40;;;;;;;;;5.00;2.67;;;;;15.83;72.81;102093.72;5008537;28;9260;-68
2023/08/10 05:25:08;;;;;;;;;3.67;3.00;;;;;15.85;72.56;102096.25;5012257;28;9251;-69
2023/08/10 05:27:38;;;;;;;;;2.67;2.67;;;;;15.88;72.84;102095.81;5008033;28;9182;-69
2023/08/10 05:30:08;;;;;;;;;1.00;1.00;;;;;15.90;73.10;102100.03;5010462;28;9162;-68
2023/08/10 05:32:36;;;;;;;;;1.67;1.33;;;;;15.93;72.79;102113.22;5011027;28;9073;-68
2023/08/10 05:35:04;;;;;;;;;1.00;1.00;;;;;15.95;72.87;102116.56;5008187;28;9063;-69
2023/08/10 05:37:31;;;;;;;;;1.67;1.33;;;;;15.98;72.92;102105.31;5005073;28;9032;-69
2023/08/10 05:39:57;;;;;;;;;2.00;1.00;;;;;16.03;73.23;102112.84;5024516;28;9097;-69
2023/08/10 05:42:25;;;;;;;;;2.00;2.00;;;;;16.06;73.13;102098.88;5007856;28;8996;-68
2023/08/10 05:44:52;;;;;;;;;2.00;2.00;;;;;16.12;73.07;102105.38;5010710;28;9077;-68
2023/08/10 05:47:18;;;;;;;;;1.00;1.00;;;;;16.15;73.43;102103.09;5009853;28;9189;-68
2023/08/10 05:49:45;;;;;;;;;2.67;1.33;;;;;16.18;73.22;102094.56;5010025;28;9074;-69
2023/08/10 05:52:11;;;;;;;;;2.67;2.67;;;;;16.22;73.48;102098.56;5011242;28;8966;-69
2023/08/10 05:54:38;;;;;;;;;4.00;2.00;;;;;16.23;73.55;102099.41;5006991;28;8954;-69
2023/08/10 05:57:04;;;;;;;;;1.00;0.00;;;;;16.24;73.13;102099.19;5010816;28;9045;-69
2023/08/10 05:59:31;;;;;;;;;1.00;1.00;;;;;16.26;73.39;102094.41;5007836;28;8881;-68
2023/08/10 06:01:58;;;;;;;;;2.00;2.00;;;;;16.28;73.43;102105.06;5009048;28;8937;-68
2023/08/10 06:04:25;;;;;;;;;2.00;2.00;;;;;16.30;73.37;102103.81;5007512;28;8979;-68
2023/08/10 06:06:51;;;;;;;;;1.75;1.75;;;;;16.31;73.57;102104.66;5008533;28;9120;-68
2023/08/10 06:09:19;;;;;;;;;2.00;2.00;;;;;16.32;73.45;102104.44;5009116;28;8858;-68
2023/08/10 06:11:45;;;;;;;;;1.00;1.00;;;;;16.39;73.40;102106.38;5011150;28;9146;-68
2023/08/10 06:14:15;;;;;;;;;1.00;1.00;;;;;16.46;73.64;102104.53;5011323;28;8839;-68
2023/08/10 06:16:41;;;;;;;;;1.25;1.25;;;;;16.55;73.33;102103.31;5007373;28;8989;-69
2023/08/10 06:19:08;;;;;;;;;2.00;0.75;;;;;16.62;72.76;102098.75;5008777;28;8839;-68
2023/08/10 06:21:35;;;;;;;;;1.00;1.00;;;;;16.70;72.75;102095.00;5009874;28;8881;-68
2023/08/10 06:24:02;;;;;;;;;3.00;3.00;;;;;16.77;72.63;102096.75;5011320;28;9093;-68
2023/08/10 06:26:29;;;;;;;;;2.00;2.00;;;;;16.85;72.70;102087.53;5010656;28;8931;-68
2023/08/10 06:28:56;;;;;;;;;3.25;3.25;;;;;16.94;72.42;102090.91;5006170;28;8944;-68
2023/08/10 06:31:22;;;;;;;;;2.25;1.00;;;;;16.98;72.38;102092.19;5011381;28;8831;-68
2023/08/10 06:33:49;;;;;;;;;1.00;1.00;;;;;16.98;72.14;102092.19;5008950;28;8838;-67
2023/08/10 06:36:16;;;;;;;;;2.25;1.00;;;;;16.99;72.27;102085.69;5006352;28;8831;-67
2023/08/10 06:38:42;;;;;;;;;2.75;2.75;;;;;17.04;72.35;102092.19;5010446;28;9561;-68
2023/08/10 06:41:08;;;;;;;;;2.75;1.25;;;;;17.06;71.92;102097.44;5008976;28;8839;-68
2023/08/10 06:43:35;;;;;;;;;1.75;1.25;;;;;17.05;71.72;102098.44;5010875;28;8835;-68
2023/08/10 06:46:02;;;;;;;;;1.75;1.25;;;;;17.10;71.90;102100.59;5010422;28;9005;-68
2023/08/10 06:48:28;;;;;;;;;2.25;2.25;;;;;17.07;71.48;102101.81;5010231;28;8850;-67
2023/08/10 06:50:55;;;;;;;;;2.00;2.00;;;;;17.07;71.68;102101.81;5010302;28;8909;-69
2023/08/10 06:53:21;;;;;;;;;0.50;0.25;;;;;17.11;71.10;102113.97;5009075;28;8851;-68
2023/08/10 06:55:50;;;;;;;;;1.25;1.25;;;;;17.14;70.63;102112.72;5008531;28;8819;-68
2023/08/10 06:58:17;;;;;;;;;1.50;1.50;;;;;17.12;70.46;102114.81;5010380;28;8970;-68
2023/08/10 07:00:46;;;;;;;;;1.00;1.00;;;;;17.09;70.61;102120.66;5009897;28;8818;-68
2023/08/10 07:03:14;;;;;;;;;2.75;2.75;;;;;17.07;70.37;102118.16;5009063;28;9054;-67
2023/08/10 07:05:42;;;;;;;;;1.67;1.00;;;;;17.12;70.59;102122.97;5008980;28;8820;-69
2023/08/10 07:08:09;;;;;;;;;1.00;1.00;;;;;17.16;70.41;102121.50;5003551;28;8933;-68
2023/08/10 07:10:37;;;;;;;;;3.00;3.00;;;;;17.19;70.10;102126.53;5003246;28;8842;-68
2023/08/10 07:13:04;;;;;;;;;2.50;2.00;;;;;17.17;70.08;102117.72;5005093;28;8823;-69
2023/08/10 07:15:32;;;;;;;;;2.00;2.00;;;;;17.20;69.84;102123.59;5000957;28;8826;-69
2023/08/10 07:17:59;;;;;;;;;1.00;1.00;;;;;17.19;69.89;102126.53;4998296;28;8897;-68
2023/08/10 07:20:29;;;;;;;;;2.00;2.00;;;;;17.19;69.94;102121.94;4998639;28;8830;-68
2023/08/10 07:22:58;;;;;;;;;2.00;2.00;;;;;17.21;70.06;102125.28;5000995;28;8944;-68
2023/08/10 07:25:25;;;;;;;;;0.25;0.25;;;;;17.26;69.87;102117.34;5029789;28;8905;-67
2023/08/10 07:27:52;;;;;;;;;1.00;1.00;;;;;17.32;69.76;102133.88;4999591;28;8877;-68
2023/08/10 07:30:18;;;;;;;;;1.00;1.00;;;;;17.34;69.92;102126.34;5009135;28;9575;-68
2023/08/10 07:32:45;;;;;;;;;2.33;2.33;;;;;17.30;69.49;102129.50;5007248;28;8831;-68
2023/08/10 07:35:12;;;;;;;;;1.25;1.25;;;;;17.28;69.25;102126.13;5009966;28;8947;-67
2023/08/10 07:37:40;;;;;;;;;1.25;1.25;;;;;17.31;68.86;102130.31;5008890;28;9594;-68
2023/08/10 07:40:10;;;;;;;;;2.75;2.75;;;;;17.33;69.33;102127.38;5007647;28;8850;-68
2023/08/10 07:42:36;;;;;;;;;2.00;1.00;;;;;17.38;69.38;102122.16;5009408;28;8835;-68
2023/08/10 07:45:05;;;;;;;;;1.50;1.50;;;;;17.42;69.60;102127.00;5010328;28;8819;-68
2023/08/10 07:47:31;;;;;;;;;3.00;3.00;;;;;17.43;69.64;102130.56;5009280;28;8914;-68
2023/08/10 07:49:58;;;;;;;;;2.00;2.00;;;;;17.43;69.67;102127.84;5008576;28;9593;-68
2023/08/10 07:52:24;;;;;;;;;2.00;1.50;;;;;17.43;69.18;102127.84;5010166;28;8901;-68
2023/08/10 07:54:51;;;;;;;;;1.50;1.50;;;;;17.51;68.87;102127.63;5006705;28;9542;-68
2023/08/10 07:57:17;;;;;;;;;1.00;1.00;;;;;17.56;68.55;102133.28;5005646;28;9623;-68
2023/08/10 07:59:44;;;;;;;;;1.00;1.00;;;;;17.64;68.14;102130.34;5009649;28;8917;-68
2023/08/10 08:02:11;;;;;;;;;0.75;0.75;;;;;17.73;68.09;102133.69;5011683;28;8839;-68
2023/08/10 08:04:37;;;;;;;;;3.00;2.00;;;;;17.79;67.44;102135.63;5014110;28;8827;-69
2023/08/10 08:07:04;;;;;;;;;1.50;1.00;;;;;17.85;67.35;102136.66;5014086;28;9582;-69
2023/08/10 08:09:31;;;;;;;;;0.00;0.00;;;;;17.94;66.33;102138.09;5014169;28;8838;-68
2023/08/10 08:11:57;;;;;;;;;2.25;2.25;;;;;17.91;66.71;102135.81;5007172;28;8843;-68
2023/08/10 08:14:23;;;;;;;;;3.00;2.00;;;;;17.93;66.51;102128.25;5013800;28;8815;-68
2023/08/10 08:16:50;;;;;;;;;1.00;1.00;;;;;17.94;66.23;102135.38;5029032;28;8879;-69
2023/08/10 08:19:17;;;;;;;;;1.00;1.00;;;;;18.03;66.69;102134.13;5013927;28;8855;-68
2023/08/10 08:21:48;;;;;;;;;2.00;1.00;;;;;18.09;66.76;102135.97;5013595;28;8847;-68
2023/08/10 08:24:15;;;;;;;;;2.75;2.00;;;;;18.09;66.55;102141.44;5012441;28;8857;-68
2023/08/10 08:26:41;;;;;;;;;2.00;2.00;;;;;18.06;66.16;102138.28;5013748;28;8839;-68
2023/08/10 08:29:08;;;;;;;;;1.00;1.00;;;;;18.13;65.89;102136.41;5011747;28;8823;-67
2023/08/10 08:31:35;;;;;;;;;0.50;0.50;;;;;18.15;65.83;102137.88;5028482;28;8839;-68
2023/08/10 08:34:03;;;;;;;;;0.25;0.25;;;;;18.21;65.63;102147.06;5013643;28;8855;-68
2023/08/10 08:36:29;;;;;;;;;2.25;1.00;;;;;18.20;65.31;102148.97;5012414;28;8865;-68
2023/08/10 08:38:56;;;;;;;;;0.00;0.00;;;;;18.23;64.84;102154.00;5025187;28;8842;-68
2023/08/10 08:41:26;;;;;;;;;0.00;0.00;;;;;18.25;64.61;102148.31;5013156;28;8904;-67
2023/08/10 08:43:55;;;;;;;;;1.00;1.00;;;;;18.26;64.49;102148.09;5013355;28;9649;-67
2023/08/10 08:46:30;;;;;;;;;1.00;1.00;;;;;18.28;64.79;102146.00;5028760;28;8982;-67
2023/08/10 08:48:56;;;;;;;;;1.00;1.00;;;;;18.34;64.51;102138.84;4996137;28;8876;-68
2023/08/10 08:51:23;;;;;;;;;0.75;0.75;;;;;18.40;64.53;102143.47;4998875;28;8839;-68
2023/08/10 08:53:51;;;;;;;;;2.75;2.75;;;;;18.41;64.18;102144.28;5003782;28;9720;-67
2023/08/10 08:56:19;;;;;;;;;1.00;1.00;;;;;18.47;64.40;102140.69;5010475;28;8897;-67
2023/08/10 08:58:45;;;;;;;;;1.00;1.00;;;;;18.55;64.54;102145.91;5013109;28;8835;-68
2023/08/10 09:01:13;;;;;;;;;5.00;3.25;;;;;18.50;64.51;102152.00;5013028;28;8866;-67
2023/08/10 09:03:40;;;;;;;;;2.25;2.25;;;;;18.53;64.58;102145.31;5013113;28;8839;-68
2023/08/10 09:06:06;;;;;;;;;2.50;2.00;;;;;18.54;64.75;102144.25;5012063;28;8866;-67
2023/08/10 09:08:35;;;;;;;;;2.25;1.25;;;;;18.57;64.90;102140.25;5011165;28;9561;-68
2023/08/10 09:11:02;;;;;;;;;2.00;2.00;;;;;18.59;64.90;102144.44;5011771;28;9570;-70
2023/08/10 09:13:29;;;;;;;;;3.00;3.00;;;;;18.60;65.03;102148.00;5012646;28;8823;-70
2023/08/10 09:16:07;;;;;;;;;3.50;3.50;;;;;18.53;64.79;102148.03;5012977;28;8827;-67
2023/08/10 09:18:35;;;;;;;;;3.00;3.00;;;;;18.55;64.84;102143.19;5028095;28;8835;-70
2023/08/10 09:21:11;;;;;;;;;2.00;2.00;;;;;18.64;64.84;102138.34;5012808;28;8842;-70
2023/08/10 09:23:38;;;;;;;;;3.25;3.00;;;;;18.65;64.20;102132.66;5011008;28;8839;-69
2023/08/10 09:26:12;;;;;;;;;7.50;7.50;;;;;18.59;63.55;102128.06;5011955;28;8856;-70
2023/08/10 09:28:39;;;;;;;;;3.50;3.00;;;;;18.63;63.70;102133.91;5012795;28;8843;-68
2023/08/10 09:31:09;;;;;;;;;5.00;3.00;;;;;18.66;63.40;102133.50;5012402;28;8839;-69
2023/08/10 09:33:40;;;;;;;;;5.75;5.50;;;;;18.69;63.49;102131.19;5012444;28;9802;-69
2023/08/10 09:36:08;;;;;;;;;4.75;4.75;;;;;18.68;63.47;102134.97;5009588;28;9552;-69
2023/08/10 09:38:35;;;;;;;;;8.25;6.00;;;;;18.68;63.40;102145.88;5002795;28;8825;-70
2023/08/10 09:41:13;;;;;;;;;7.25;7.25;;;;;18.74;63.07;102142.31;5002818;28;8839;-69
2023/08/10 09:43:41;;;;;;;;;4.00;4.00;;;;;18.78;63.06;102142.72;5033301;28;8839;-69
2023/08/10 09:46:09;;;;;;;;;5.75;4.00;;;;;18.85;63.17;102131.78;5005454;28;8823;-68
2023/08/10 09:48:41;;;;;;;;;4.50;4.50;;;;;18.92;63.14;102138.00;5010830;28;8830;-70
2023/08/10 09:51:10;;;;;;;;;6.00;6.00;;;;;18.94;63.11;102133.19;5011498;28;8858;-69
2023/08/10 09:53:37;;;;;;;;;6.25;4.75;;;;;18.95;62.95;102132.13;5009482;28;8850;-70
2023/08/10 09:56:07;;;;;;;;;4.75;4.75;;;;;19.02;62.99;102135.66;5011943;28;8838;-67
2023/08/10 09:58:36;;;;;;;;;2.00;2.00;;;;;19.07;62.71;102132.25;5008437;28;8847;-67
2023/08/10 10:01:04;;;;;;;;;3.75;2.50;;;;;19.10;62.91;102129.09;5009253;28;8863;-68
2023/08/10 10:03:32;;;;;;;;;3.00;3.00;;;;;19.15;62.86;102130.09;5010525;28;9515;-66
2023/08/10 10:06:00;;;;;;;;;7.00;6.75;;;;;19.07;62.25;102137.72;5026498;28;8835;-69
2023/08/10 10:08:28;;;;;;;;;5.00;5.00;;;;;19.08;62.08;102140.25;5011464;28;8851;-70
2023/08/10 10:11:01;;;;;;;;;11.00;7.75;;;;;18.95;61.75;102141.16;5011464;28;8826;-70
2023/08/10 10:13:28;;;;;;;;;8.00;8.00;;;;;18.94;61.84;102147.66;5011498;28;8831;-70
2023/08/10 10:15:56;;;;;;;;;5.00;5.00;;;;;18.99;61.76;102138.81;5003704;28;8838;-67
2023/08/10 10:18:24;;;;;;;;;4.00;4.00;;;;;19.04;61.92;102141.75;5009950;28;9588;-69
2023/08/10 10:20:51;;;;;;;;;7.00;6.00;;;;;19.08;61.49;102142.97;5010914;28;8835;-69
2023/08/10 10:23:20;;;;;;;;;7.00;6.75;;;;;19.09;61.88;102143.81;5009471;28;8893;-71
2023/08/10 10:26:00;;;;;;;;;3.75;3.75;;;;;19.14;61.83;102136.63;5005639;28;8950;-69
2023/08/10 10:28:30;;;;;;;;;5.75;4.50;;;;;19.15;61.85;102142.94;5008392;28;9550;-70
2023/08/10 10:31:10;;;;;;;;;4.25;3.00;;;;;19.21;61.94;102137.44;5008320;28;8835;-69
2023/08/10 10:33:54;;;;;;;;;7.50;7.50;;;;;19.15;62.16;102134.75;5021887;28;9562;-69
2023/08/10 10:36:21;;;;;;;;;8.25;6.00;;;;;19.15;61.91;102143.75;5026429;28;8862;-68
2023/08/10 10:38:56;;;;;;;;;5.25;4.25;;;;;19.20;61.94;102135.78;5011339;28;8862;-70
2023/08/10 10:41:31;;;;;;;;;7.50;7.50;;;;;19.24;62.22;102147.91;5009435;28;8835;-69
2023/08/10 10:43:59;;;;;;;;;4.00;4.00;;;;;19.26;62.16;102134.03;5010987;28;8953;-69
2023/08/10 10:46:32;;;;;;;;;3.50;3.50;;;;;19.29;61.83;102143.69;5010133;28;8819;-69
2023/08/10 10:49:00;;;;;;;;;3.00;3.00;;;;;19.41;62.50;102145.50;5010770;28;8900;-67
2023/08/10 10:51:28;;;;;;;;;3.00;3.00;;;;;19.52;62.28;102144.75;5010733;28;8835;-70
2023/08/10 10:53:55;;;;;;;;;2.00;2.00;;;;;19.59;62.28;102143.88;5011038;28;9564;-69
2023/08/10 10:56:24;;;;;;;;;3.25;2.75;;;;;19.62;62.15;102141.56;5010847;28;8838;-69
2023/08/10 10:58:51;;;;;;;;;3.00;3.00;;;;;19.64;62.02;102142.16;5010978;28;8915;-69
2023/08/10 11:01:21;;;;;;;;;3.25;2.50;;;;;19.67;61.56;102154.56;5009236;28;9533;-69
2023/08/10 11:03:53;;;;;;;;;3.00;2.50;;;;;19.67;61.62;102149.94;5010732;28;8828;-69
2023/08/10 11:06:20;;;;;;;;;3.25;3.25;;;;;19.66;61.39;102152.91;5010874;28;8908;-69
2023/08/10 11:08:56;;;;;;;;;4.00;4.00;;;;;19.65;61.13;102141.13;5009688;28;8847;-69
2023/08/10 11:11:24;;;;;;;;;2.00;2.00;;;;;19.67;61.50;102149.09;5010348;28;8941;-70
2023/08/10 11:13:52;;;;;;;;;2.50;2.50;;;;;19.74;61.71;102147.16;4991150;28;9528;-68
2023/08/10 11:16:18;;;;;;;;;2.00;2.00;;;;;19.77;60.76;102141.25;5007279;28;8933;-68
2023/08/10 11:18:47;;;;;;;;;3.00;3.00;;;;;19.80;59.68;102139.94;5010725;28;8863;-68
2023/08/10 11:21:15;;;;;;;;;3.50;3.00;;;;;19.83;59.10;102134.88;5010365;28;8839;-68
2023/08/10 11:23:42;;;;;;;;;2.00;2.00;;;;;19.86;58.82;102128.13;5010594;28;8860;-67
2023/08/10 11:26:11;;;;;;;;;3.00;3.00;;;;;19.94;58.84;102127.84;5010592;28;9600;-67
2023/08/10 11:28:38;;;;;;;;;3.50;1.50;;;;;19.99;58.34;102128.00;5009645;28;8846;-67
2023/08/10 11:31:06;;;;;;;;;3.00;2.25;;;;;20.03;58.17;102120.19;5005425;28;8865;-68
2023/08/10 11:33:34;;;;;;;;;4.25;4.00;;;;;20.02;57.64;102121.25;5009268;28;8877;-67
2023/08/10 11:36:01;;;;;;;;;2.00;2.00;;;;;20.04;57.90;102130.88;5008943;28;8831;-68
2023/08/10 11:38:29;;;;;;;;;3.50;2.75;;;;;20.12;57.52;102118.81;5010163;28;8858;-67